sensor_id;sensor_type;location;lat;lon;timestamp;pressure;altitude;pressure_sealevel;temperature;humidity
70555;BME280;58104;52.744;15.242;2024-02-15T00:00:12;101080.35;;;17.47;52.58
70555;BME280;58104;52.744;15.242;2024-02-15T00:02:36;101079.54;;;17.36;52.77
70555;BME280;58104;52.744;15.242;2024-02-15T00:05:02;101076.54;;;17.42;52.90
70555;BME280;58104;52.744;15.242;2024-02-15T00:07:27;101074.50;;;17.45;52.45
70555;BME280;58104;52.744;15.242;2024-02-15T00:09:53;101073.84;;;17.48;52.72
70555;BME280;58104;52.744;15.242;2024-02-15T00:12:18;101072.57;;;17.48;52.92
70555;BME280;58104;52.744;15.242;2024-02-15T00:14:43;101073.88;;;17.45;52.40
70555;BME280;58104;52.744;15.242;2024-02-15T00:17:09;101074.27;;;17.48;52.50
70555;BME280;58104;52.744;15.242;2024-02-15T00:19:37;101073.32;;;17.45;52.46
70555;BME280;58104;52.744;15.242;2024-02-15T00:22:00;101071.51;;;17.39;52.75
70555;BME280;58104;52.744;15.242;2024-02-15T00:24:25;101073.88;;;17.50;52.82
70555;BME280;58104;52.744;15.242;2024-02-15T00:26:51;101072.40;;;17.38;52.48
70555;BME280;58104;52.744;15.242;2024-02-15T00:29:16;101076.22;;;17.42;52.67
70555;BME280;58104;52.744;15.242;2024-02-15T00:31:42;101075.12;;;17.47;52.73
70555;BME280;58104;52.744;15.242;2024-02-15T00:34:07;101075.17;;;17.48;52.70
70555;BME280;58104;52.744;15.242;2024-02-15T00:36:32;101074.84;;;17.41;52.24
70555;BME280;58104;52.744;15.242;2024-02-15T00:38:58;101074.66;;;17.49;52.10
70555;BME280;58104;52.744;15.242;2024-02-15T00:41:23;101073.84;;;17.45;52.29
70555;BME280;58104;52.744;15.242;2024-02-15T00:43:49;101072.30;;;17.43;52.67
70555;BME280;58104;52.744;15.242;2024-02-15T00:46:15;101074.40;;;17.40;52.57
70555;BME280;58104;52.744;15.242;2024-02-15T00:48:39;101076.82;;;17.44;52.37
70555;BME280;58104;52.744;15.242;2024-02-15T00:51:05;101076.46;;;17.43;52.07
70555;BME280;58104;52.744;15.242;2024-02-15T00:53:30;101072.62;;;17.48;52.65
70555;BME280;58104;52.744;15.242;2024-02-15T00:55:56;101073.20;;;17.48;52.15
70555;BME280;58104;52.744;15.242;2024-02-15T00:58:21;101072.09;;;17.35;52.30
70555;BME280;58104;52.744;15.242;2024-02-15T01:00:47;101069.85;;;17.42;52.49
70555;BME280;58104;52.744;15.242;2024-02-15T01:03:12;101070.18;;;17.42;52.04
70555;BME280;58104;52.744;15.242;2024-02-15T01:05:38;101065.36;;;17.35;52.35
70555;BME280;58104;52.744;15.242;2024-02-15T01:08:03;101067.41;;;17.31;52.68
70555;BME280;58104;52.744;15.242;2024-02-15T01:10:28;101068.11;;;17.40;52.18
70555;BME280;58104;52.744;15.242;2024-02-15T01:12:54;101068.28;;;17.36;52.48
70555;BME280;58104;52.744;15.242;2024-02-15T01:15:19;101062.14;;;17.29;52.57
70555;BME280;58104;52.744;15.242;2024-02-15T01:17:45;101063.27;;;17.29;53.20
70555;BME280;58104;52.744;15.242;2024-02-15T01:20:11;101065.08;;;17.39;52.46
70555;BME280;58104;52.744;15.242;2024-02-15T01:22:36;101066.32;;;17.41;52.78
70555;BME280;58104;52.744;15.242;2024-02-15T01:25:01;101067.05;;;17.43;52.29
70555;BME280;58104;52.744;15.242;2024-02-15T01:27:26;101065.77;;;17.41;52.12
70555;BME280;58104;52.744;15.242;2024-02-15T01:29:52;101061.34;;;17.41;52.25
70555;BME280;58104;52.744;15.242;2024-02-15T01:32:17;101060.02;;;17.38;52.81
70555;BME280;58104;52.744;15.242;2024-02-15T01:34:43;101060.79;;;17.40;52.23
70555;BME280;58104;52.744;15.242;2024-02-15T01:37:09;101057.31;;;17.33;52.09
70555;BME280;58104;52.744;15.242;2024-02-15T01:39:33;101058.49;;;17.40;52.24
70555;BME280;58104;52.744;15.242;2024-02-15T01:41:59;101056.60;;;17.36;52.68
70555;BME280;58104;52.744;15.242;2024-02-15T01:44:24;101054.52;;;17.40;52.17
70555;BME280;58104;52.744;15.242;2024-02-15T01:46:50;101053.11;;;17.35;52.35
70555;BME280;58104;52.744;15.242;2024-02-15T01:49:15;101051.74;;;17.37;52.57
70555;BME280;58104;52.744;15.242;2024-02-15T01:51:41;101051.13;;;17.35;52.26
70555;BME280;58104;52.744;15.242;2024-02-15T01:54:06;101050.39;;;17.37;52.25
70555;BME280;58104;52.744;15.242;2024-02-15T01:56:32;101048.37;;;17.31;52.38
70555;BME280;58104;52.744;15.242;2024-02-15T01:58:57;101045.83;;;17.44;52.29
70555;BME280;58104;52.744;15.242;2024-02-15T02:01:22;101042.19;;;17.42;51.88
70555;BME280;58104;52.744;15.242;2024-02-15T02:03:47;101040.82;;;17.44;52.00
70555;BME280;58104;52.744;15.242;2024-02-15T02:06:13;101039.79;;;17.37;52.27
70555;BME280;58104;52.744;15.242;2024-02-15T02:08:38;101034.27;;;17.43;51.98
70555;BME280;58104;52.744;15.242;2024-02-15T02:11:04;101037.20;;;17.37;52.20
70555;BME280;58104;52.744;15.242;2024-02-15T02:13:29;101035.58;;;17.45;52.18
70555;BME280;58104;52.744;15.242;2024-02-15T02:15:55;101036.02;;;17.40;52.14
70555;BME280;58104;52.744;15.242;2024-02-15T02:18:20;101037.20;;;17.45;52.12
70555;BME280;58104;52.744;15.242;2024-02-15T02:20:45;101038.84;;;17.44;51.99
70555;BME280;58104;52.744;15.242;2024-02-15T02:23:14;101035.82;;;17.44;52.11
70555;BME280;58104;52.744;15.242;2024-02-15T02:25:36;101032.72;;;17.41;52.35
70555;BME280;58104;52.744;15.242;2024-02-15T02:28:02;101034.53;;;17.44;52.38
70555;BME280;58104;52.744;15.242;2024-02-15T02:30:27;101035.95;;;17.38;52.10
70555;BME280;58104;52.744;15.242;2024-02-15T02:32:52;101038.29;;;17.35;52.45
70555;BME280;58104;52.744;15.242;2024-02-15T02:35:18;101037.64;;;17.38;51.98
70555;BME280;58104;52.744;15.242;2024-02-15T02:37:43;101034.22;;;17.46;52.51
70555;BME280;58104;52.744;15.242;2024-02-15T02:40:09;101029.89;;;17.48;52.01
70555;BME280;58104;52.744;15.242;2024-02-15T02:42:34;101030.53;;;17.48;52.14
70555;BME280;58104;52.744;15.242;2024-02-15T02:44:59;101034.39;;;17.44;51.81
70555;BME280;58104;52.744;15.242;2024-02-15T02:47:25;101033.62;;;17.44;51.92
70555;BME280;58104;52.744;15.242;2024-02-15T02:49:50;101031.83;;;17.48;52.20
70555;BME280;58104;52.744;15.242;2024-02-15T02:52:16;101034.81;;;17.44;52.48
70555;BME280;58104;52.744;15.242;2024-02-15T02:54:41;101032.52;;;17.47;51.96
70555;BME280;58104;52.744;15.242;2024-02-15T02:57:06;101036.22;;;17.45;52.42
70555;BME280;58104;52.744;15.242;2024-02-15T02:59:33;101034.92;;;17.39;52.33
70555;BME280;58104;52.744;15.242;2024-02-15T03:01:57;101036.50;;;17.41;52.22
70555;BME280;58104;52.744;15.242;2024-02-15T03:04:23;101037.57;;;17.54;52.00
70555;BME280;58104;52.744;15.242;2024-02-15T03:06:48;101038.12;;;17.52;52.13
70555;BME280;58104;52.744;15.242;2024-02-15T03:09:14;101038.33;;;17.54;52.00
70555;BME280;58104;52.744;15.242;2024-02-15T03:11:39;101039.50;;;17.49;52.01
70555;BME280;58104;52.744;15.242;2024-02-15T03:14:04;101039.96;;;17.54;52.27
70555;BME280;58104;52.744;15.242;2024-02-15T03:16:30;101040.87;;;17.57;52.16
70555;BME280;58104;52.744;15.242;2024-02-15T03:18:55;101041.50;;;17.47;52.70
70555;BME280;58104;52.744;15.242;2024-02-15T03:21:21;101043.40;;;17.45;52.29
70555;BME280;58104;52.744;15.242;2024-02-15T03:23:46;101038.83;;;17.52;51.94
70555;BME280;58104;52.744;15.242;2024-02-15T03:26:11;101040.37;;;17.48;52.50
70555;BME280;58104;52.744;15.242;2024-02-15T03:28:37;101043.96;;;17.59;52.33
70555;BME280;58104;52.744;15.242;2024-02-15T03:31:03;101045.39;;;17.51;52.23
70555;BME280;58104;52.744;15.242;2024-02-15T03:33:28;101047.18;;;17.52;52.17
70555;BME280;58104;52.744;15.242;2024-02-15T03:35:53;101048.63;;;17.47;52.12
70555;BME280;58104;52.744;15.242;2024-02-15T03:38:19;101048.64;;;17.51;52.43
70555;BME280;58104;52.744;15.242;2024-02-15T03:40:44;101050.46;;;17.51;52.24
70555;BME280;58104;52.744;15.242;2024-02-15T03:43:09;101051.56;;;17.50;52.37
70555;BME280;58104;52.744;15.242;2024-02-15T03:45:35;101052.74;;;17.49;52.41
70555;BME280;58104;52.744;15.242;2024-02-15T03:48:00;101051.92;;;17.61;52.59
70555;BME280;58104;52.744;15.242;2024-02-15T03:50:26;101052.38;;;17.65;52.54
70555;BME280;58104;52.744;15.242;2024-02-15T03:52:51;101050.13;;;17.64;52.14
70555;BME280;58104;52.744;15.242;2024-02-15T03:55:17;101047.09;;;17.57;52.74
70555;BME280;58104;52.744;15.242;2024-02-15T03:57:42;101048.20;;;17.56;52.24
70555;BME280;58104;52.744;15.242;2024-02-15T04:00:08;101046.51;;;17.58;52.15
70555;BME280;58104;52.744;15.242;2024-02-15T04:02:33;101045.47;;;17.60;52.18
70555;BME280;58104;52.744;15.242;2024-02-15T04:04:58;101045.60;;;17.58;52.10
70555;BME280;58104;52.744;15.242;2024-02-15T04:07:24;101046.45;;;17.69;51.84
70555;BME280;58104;52.744;15.242;2024-02-15T04:09:49;101049.88;;;17.55;51.84
70555;BME280;58104;52.744;15.242;2024-02-15T04:12:15;101053.48;;;17.61;51.97
70555;BME280;58104;52.744;15.242;2024-02-15T04:14:40;101052.22;;;17.59;51.97
70555;BME280;58104;52.744;15.242;2024-02-15T04:17:05;101049.91;;;17.59;52.04
70555;BME280;58104;52.744;15.242;2024-02-15T04:19:31;101044.43;;;17.53;52.27
70555;BME280;58104;52.744;15.242;2024-02-15T04:21:57;101045.01;;;17.59;52.59
70555;BME280;58104;52.744;15.242;2024-02-15T04:24:22;101047.61;;;17.61;51.81
70555;BME280;58104;52.744;15.242;2024-02-15T04:26:47;101049.86;;;17.58;51.69
70555;BME280;58104;52.744;15.242;2024-02-15T04:29:13;101051.37;;;17.48;51.73
70555;BME280;58104;52.744;15.242;2024-02-15T04:31:38;101049.77;;;17.50;52.32
70555;BME280;58104;52.744;15.242;2024-02-15T04:34:03;101051.29;;;17.46;52.40
70555;BME280;58104;52.744;15.242;2024-02-15T04:36:29;101047.13;;;17.51;52.03
70555;BME280;58104;52.744;15.242;2024-02-15T04:38:54;101045.51;;;17.40;52.07
70555;BME280;58104;52.744;15.242;2024-02-15T04:41:19;101042.32;;;17.53;52.22
70555;BME280;58104;52.744;15.242;2024-02-15T04:43:46;101042.65;;;17.49;52.29
70555;BME280;58104;52.744;15.242;2024-02-15T04:46:10;101047.15;;;17.59;52.04
70555;BME280;58104;52.744;15.242;2024-02-15T04:48:36;101049.93;;;17.53;51.99
70555;BME280;58104;52.744;15.242;2024-02-15T04:51:01;101048.89;;;17.59;52.17
70555;BME280;58104;52.744;15.242;2024-02-15T04:53:26;101046.69;;;17.51;52.33
70555;BME280;58104;52.744;15.242;2024-02-15T04:55:52;101048.65;;;17.53;52.10
70555;BME280;58104;52.744;15.242;2024-02-15T04:58:20;101050.10;;;17.57;51.97
70555;BME280;58104;52.744;15.242;2024-02-15T05:00:43;101050.56;;;17.55;52.08
70555;BME280;58104;52.744;15.242;2024-02-15T05:03:09;101053.42;;;17.55;52.42
70555;BME280;58104;52.744;15.242;2024-02-15T05:05:34;101053.46;;;17.51;52.09
70555;BME280;58104;52.744;15.242;2024-02-15T05:07:59;101052.70;;;17.53;51.83
70555;BME280;58104;52.744;15.242;2024-02-15T05:10:24;101051.00;;;17.55;51.96
70555;BME280;58104;52.744;15.242;2024-02-15T05:12:50;101045.40;;;17.58;52.18
70555;BME280;58104;52.744;15.242;2024-02-15T05:15:16;101048.48;;;17.53;52.08
70555;BME280;58104;52.744;15.242;2024-02-15T05:17:40;101049.02;;;17.50;52.09
70555;BME280;58104;52.744;15.242;2024-02-15T05:20:07;101052.81;;;17.72;52.09
70555;BME280;58104;52.744;15.242;2024-02-15T05:22:31;101054.87;;;17.56;52.01
70555;BME280;58104;52.744;15.242;2024-02-15T05:24:56;101053.69;;;17.51;52.12
70555;BME280;58104;52.744;15.242;2024-02-15T05:27:22;101051.33;;;17.45;52.71
70555;BME280;58104;52.744;15.242;2024-02-15T05:29:47;101051.92;;;17.44;52.69
70555;BME280;58104;52.744;15.242;2024-02-15T05:32:13;101052.17;;;17.58;52.07
70555;BME280;58104;52.744;15.242;2024-02-15T05:34:39;101052.91;;;17.56;52.19
70555;BME280;58104;52.744;15.242;2024-02-15T05:37:04;101054.00;;;17.59;52.22
70555;BME280;58104;52.744;15.242;2024-02-15T05:39:29;101047.68;;;17.58;51.93
70555;BME280;58104;52.744;15.242;2024-02-15T05:41:54;101041.26;;;17.59;52.14
70555;BME280;58104;52.744;15.242;2024-02-15T05:44:20;101036.64;;;17.58;52.62
70555;BME280;58104;52.744;15.242;2024-02-15T05:46:46;101038.54;;;17.50;52.15
70555;BME280;58104;52.744;15.242;2024-02-15T05:49:11;101040.74;;;17.51;52.34
70555;BME280;58104;52.744;15.242;2024-02-15T05:51:36;101042.99;;;17.62;52.05
70555;BME280;58104;52.744;15.242;2024-02-15T05:54:02;101045.21;;;17.61;52.23
70555;BME280;58104;52.744;15.242;2024-02-15T05:56:27;101050.10;;;17.59;52.77
70555;BME280;58104;52.744;15.242;2024-02-15T05:58:53;101047.89;;;17.60;52.08
70555;BME280;58104;52.744;15.242;2024-02-15T06:01:18;101048.04;;;17.62;52.63
70555;BME280;58104;52.744;15.242;2024-02-15T06:03:43;101050.23;;;17.65;52.72
70555;BME280;58104;52.744;15.242;2024-02-15T06:06:09;101052.10;;;17.65;53.01
70555;BME280;58104;52.744;15.242;2024-02-15T06:08:35;101055.88;;;17.69;52.85
70555;BME280;58104;52.744;15.242;2024-02-15T06:10:59;101054.05;;;17.82;53.26
70555;BME280;58104;52.744;15.242;2024-02-15T06:13:26;101052.95;;;17.56;53.73
70555;BME280;58104;52.744;15.242;2024-02-15T06:15:50;101057.14;;;17.69;53.52
70555;BME280;58104;52.744;15.242;2024-02-15T06:18:16;101058.79;;;17.60;53.73
70555;BME280;58104;52.744;15.242;2024-02-15T06:20:41;101062.68;;;17.77;53.85
70555;BME280;58104;52.744;15.242;2024-02-15T06:23:07;101064.53;;;17.79;53.89
70555;BME280;58104;52.744;15.242;2024-02-15T06:25:32;101069.25;;;17.79;53.47
70555;BME280;58104;52.744;15.242;2024-02-15T06:27:58;101075.36;;;17.78;53.59
70555;BME280;58104;52.744;15.242;2024-02-15T06:30:23;101076.70;;;17.95;53.11
70555;BME280;58104;52.744;15.242;2024-02-15T06:32:48;101075.64;;;17.88;54.46
70555;BME280;58104;52.744;15.242;2024-02-15T06:35:15;101075.28;;;17.94;53.02
70555;BME280;58104;52.744;15.242;2024-02-15T06:37:39;101075.36;;;17.87;54.52
70555;BME280;58104;52.744;15.242;2024-02-15T06:40:06;101078.30;;;17.75;54.42
70555;BME280;58104;52.744;15.242;2024-02-15T06:42:30;101082.15;;;17.72;54.23
70555;BME280;58104;52.744;15.242;2024-02-15T06:44:55;101085.66;;;17.79;54.59
70555;BME280;58104;52.744;15.242;2024-02-15T06:47:20;101082.10;;;17.59;54.61
70555;BME280;58104;52.744;15.242;2024-02-15T06:49:46;101086.12;;;17.65;54.88
70555;BME280;58104;52.744;15.242;2024-02-15T06:52:11;101085.16;;;17.61;54.82
70555;BME280;58104;52.744;15.242;2024-02-15T06:54:37;101088.79;;;17.63;55.43
70555;BME280;58104;52.744;15.242;2024-02-15T06:57:02;101090.49;;;17.80;55.03
70555;BME280;58104;52.744;15.242;2024-02-15T06:59:28;101088.86;;;17.81;55.05
70555;BME280;58104;52.744;15.242;2024-02-15T07:01:53;101091.18;;;17.82;55.33
70555;BME280;58104;52.744;15.242;2024-02-15T07:04:18;101089.38;;;17.63;54.37
70555;BME280;58104;52.744;15.242;2024-02-15T07:06:43;101093.30;;;17.66;55.91
70555;BME280;58104;52.744;15.242;2024-02-15T07:09:09;101098.10;;;17.77;54.53
70555;BME280;58104;52.744;15.242;2024-02-15T07:11:34;101099.09;;;17.88;54.89
70555;BME280;58104;52.744;15.242;2024-02-15T07:13:59;101097.73;;;17.75;55.42
70555;BME280;58104;52.744;15.242;2024-02-15T07:16:24;101097.68;;;17.43;55.01
70555;BME280;58104;52.744;15.242;2024-02-15T07:18:50;101099.28;;;17.28;54.68
70555;BME280;58104;52.744;15.242;2024-02-15T07:21:16;101101.99;;;17.20;55.49
70555;BME280;58104;52.744;15.242;2024-02-15T07:23:41;101098.77;;;17.10;56.02
70555;BME280;58104;52.744;15.242;2024-02-15T07:26:06;101102.77;;;17.21;54.96
70555;BME280;58104;52.744;15.242;2024-02-15T07:28:32;101103.88;;;17.27;54.18
70555;BME280;58104;52.744;15.242;2024-02-15T07:30:57;101100.51;;;17.08;54.42
70555;BME280;58104;52.744;15.242;2024-02-15T07:33:22;101102.64;;;17.28;54.61
70555;BME280;58104;52.744;15.242;2024-02-15T07:35:48;101108.93;;;17.26;53.91
70555;BME280;58104;52.744;15.242;2024-02-15T07:38:14;101105.99;;;17.19;53.71
70555;BME280;58104;52.744;15.242;2024-02-15T07:40:39;101104.12;;;17.03;54.19
70555;BME280;58104;52.744;15.242;2024-02-15T07:43:05;101105.75;;;17.00;54.37
70555;BME280;58104;52.744;15.242;2024-02-15T07:45:30;101103.83;;;17.11;53.61
70555;BME280;58104;52.744;15.242;2024-02-15T07:47:56;101107.86;;;17.09;53.39
70555;BME280;58104;52.744;15.242;2024-02-15T07:50:21;101105.96;;;16.96;53.86
70555;BME280;58104;52.744;15.242;2024-02-15T07:52:47;101105.67;;;16.88;53.96
70555;BME280;58104;52.744;15.242;2024-02-15T07:55:12;101103.60;;;17.06;54.22
70555;BME280;58104;52.744;15.242;2024-02-15T07:57:37;101102.62;;;17.21;53.30
70555;BME280;58104;52.744;15.242;2024-02-15T08:00:06;101104.80;;;17.35;53.11
70555;BME280;58104;52.744;15.242;2024-02-15T08:02:28;101100.29;;;17.21;53.14
70555;BME280;58104;52.744;15.242;2024-02-15T08:04:54;101102.46;;;17.18;53.18
70555;BME280;58104;52.744;15.242;2024-02-15T08:07:19;101106.91;;;17.15;53.36
70555;BME280;58104;52.744;15.242;2024-02-15T08:09:44;101105.28;;;17.18;53.36
70555;BME280;58104;52.744;15.242;2024-02-15T08:12:09;101101.34;;;17.10;53.35
70555;BME280;58104;52.744;15.242;2024-02-15T08:14:35;101095.38;;;17.11;53.63
70555;BME280;58104;52.744;15.242;2024-02-15T08:17:00;101092.29;;;17.23;53.28
70555;BME280;58104;52.744;15.242;2024-02-15T08:19:25;101090.18;;;17.10;53.34
70555;BME280;58104;52.744;15.242;2024-02-15T08:21:51;101090.18;;;17.15;53.48
70555;BME280;58104;52.744;15.242;2024-02-15T08:24:16;101088.26;;;17.26;53.61
70555;BME280;58104;52.744;15.242;2024-02-15T08:26:41;101085.41;;;17.22;53.25
70555;BME280;58104;52.744;15.242;2024-02-15T08:29:06;101087.14;;;17.10;53.51
70555;BME280;58104;52.744;15.242;2024-02-15T08:31:32;101089.44;;;17.09;53.70
70555;BME280;58104;52.744;15.242;2024-02-15T08:33:57;101089.71;;;17.13;53.50
70555;BME280;58104;52.744;15.242;2024-02-15T08:36:23;101090.78;;;17.06;53.27
70555;BME280;58104;52.744;15.242;2024-02-15T08:38:49;101091.45;;;17.01;53.23
70555;BME280;58104;52.744;15.242;2024-02-15T08:41:13;101089.80;;;17.11;53.01
70555;BME280;58104;52.744;15.242;2024-02-15T08:43:39;101092.12;;;17.00;53.19
70555;BME280;58104;52.744;15.242;2024-02-15T08:46:04;101091.00;;;17.01;52.98
70555;BME280;58104;52.744;15.242;2024-02-15T08:48:30;101092.18;;;17.17;53.07
70555;BME280;58104;52.744;15.242;2024-02-15T08:50:55;101092.94;;;17.03;53.38
70555;BME280;58104;52.744;15.242;2024-02-15T08:53:20;101093.42;;;16.89;53.42
70555;BME280;58104;52.744;15.242;2024-02-15T08:55:46;101091.36;;;16.84;53.49
70555;BME280;58104;52.744;15.242;2024-02-15T08:58:11;101090.73;;;16.91;54.08
70555;BME280;58104;52.744;15.242;2024-02-15T09:00:37;101093.19;;;16.85;54.10
70555;BME280;58104;52.744;15.242;2024-02-15T09:03:02;101095.09;;;16.74;53.86
70555;BME280;58104;52.744;15.242;2024-02-15T09:05:27;101101.18;;;16.76;54.02
70555;BME280;58104;52.744;15.242;2024-02-15T09:07:53;101104.58;;;16.88;53.86
70555;BME280;58104;52.744;15.242;2024-02-15T09:10:18;101105.47;;;16.84;54.18
70555;BME280;58104;52.744;15.242;2024-02-15T09:12:44;101102.00;;;16.85;53.93
70555;BME280;58104;52.744;15.242;2024-02-15T09:15:09;101103.49;;;16.91;54.16
70555;BME280;58104;52.744;15.242;2024-02-15T09:17:34;101106.07;;;16.87;53.97
70555;BME280;58104;52.744;15.242;2024-02-15T09:19:59;101102.70;;;16.85;53.72
70555;BME280;58104;52.744;15.242;2024-02-15T09:22:25;101100.82;;;17.09;53.99
70555;BME280;58104;52.744;15.242;2024-02-15T09:24:50;101101.53;;;17.00;53.55
70555;BME280;58104;52.744;15.242;2024-02-15T09:27:15;101104.23;;;17.03;53.61
70555;BME280;58104;52.744;15.242;2024-02-15T09:29:41;101107.30;;;17.08;53.45
70555;BME280;58104;52.744;15.242;2024-02-15T09:32:06;101110.77;;;16.91;53.85
70555;BME280;58104;52.744;15.242;2024-02-15T09:34:31;101108.58;;;16.88;53.80
70555;BME280;58104;52.744;15.242;2024-02-15T09:36:59;101108.90;;;16.89;53.90
70555;BME280;58104;52.744;15.242;2024-02-15T09:39:22;101106.04;;;17.03;53.79
70555;BME280;58104;52.744;15.242;2024-02-15T09:41:47;101107.18;;;17.00;53.60
70555;BME280;58104;52.744;15.242;2024-02-15T09:44:12;101109.91;;;17.06;53.68
70555;BME280;58104;52.744;15.242;2024-02-15T09:46:43;101116.77;;;17.05;53.65
70555;BME280;58104;52.744;15.242;2024-02-15T09:49:03;101117.15;;;17.05;53.47
70555;BME280;58104;52.744;15.242;2024-02-15T09:51:29;101117.90;;;17.07;53.67
70555;BME280;58104;52.744;15.242;2024-02-15T09:53:57;101114.70;;;17.11;53.55
70555;BME280;58104;52.744;15.242;2024-02-15T09:56:20;101114.78;;;17.07;53.58
70555;BME280;58104;52.744;15.242;2024-02-15T09:58:45;101116.52;;;17.14;53.40
70555;BME280;58104;52.744;15.242;2024-02-15T10:01:12;101111.27;;;17.16;53.41
70555;BME280;58104;52.744;15.242;2024-02-15T10:03:37;101111.70;;;17.20;53.39
70555;BME280;58104;52.744;15.242;2024-02-15T10:06:01;101112.42;;;17.10;53.41
70555;BME280;58104;52.744;15.242;2024-02-15T10:08:27;101109.86;;;17.09;53.49
70555;BME280;58104;52.744;15.242;2024-02-15T10:11:05;101108.21;;;17.10;53.43
70555;BME280;58104;52.744;15.242;2024-02-15T10:13:22;101103.51;;;17.13;53.44
70555;BME280;58104;52.744;15.242;2024-02-15T10:15:43;101108.05;;;17.15;53.36
70555;BME280;58104;52.744;15.242;2024-02-15T10:18:10;101107.10;;;17.13;53.52
70555;BME280;58104;52.744;15.242;2024-02-15T10:20:35;101108.87;;;17.23;53.13
70555;BME280;58104;52.744;15.242;2024-02-15T10:23:09;101107.96;;;17.15;53.34
70555;BME280;58104;52.744;15.242;2024-02-15T10:25:27;101109.96;;;17.19;53.46
70555;BME280;58104;52.744;15.242;2024-02-15T10:27:50;101112.12;;;17.26;53.17
70555;BME280;58104;52.744;15.242;2024-02-15T10:30:17;101111.13;;;17.30;53.20
70555;BME280;58104;52.744;15.242;2024-02-15T10:32:41;101113.00;;;17.25;53.18
70555;BME280;58104;52.744;15.242;2024-02-15T10:35:07;101109.28;;;17.13;53.42
70555;BME280;58104;52.744;15.242;2024-02-15T10:37:32;101113.89;;;17.32;53.42
70555;BME280;58104;52.744;15.242;2024-02-15T10:40:04;101110.53;;;17.20;53.44
70555;BME280;58104;52.744;15.242;2024-02-15T10:42:24;101115.36;;;17.29;53.22
70555;BME280;58104;52.744;15.242;2024-02-15T10:44:51;101116.55;;;17.19;53.39
70555;BME280;58104;52.744;15.242;2024-02-15T10:47:14;101117.41;;;17.27;53.42
70555;BME280;58104;52.744;15.242;2024-02-15T10:49:40;101118.13;;;17.34;53.35
70555;BME280;58104;52.744;15.242;2024-02-15T10:52:06;101116.63;;;17.23;53.47
70555;BME280;58104;52.744;15.242;2024-02-15T10:54:40;101114.59;;;17.21;53.61
70555;BME280;58104;52.744;15.242;2024-02-15T10:56:59;101112.46;;;17.28;53.41
70555;BME280;58104;52.744;15.242;2024-02-15T10:59:24;101111.99;;;17.32;53.38
70555;BME280;58104;52.744;15.242;2024-02-15T11:01:49;101119.18;;;17.35;53.39
70555;BME280;58104;52.744;15.242;2024-02-15T11:04:14;101116.03;;;17.32;53.55
70555;BME280;58104;52.744;15.242;2024-02-15T11:06:38;101113.47;;;17.27;53.64
70555;BME280;58104;52.744;15.242;2024-02-15T11:09:03;101110.97;;;17.34;53.75
70555;BME280;58104;52.744;15.242;2024-02-15T11:11:30;101110.10;;;17.32;53.90
70555;BME280;58104;52.744;15.242;2024-02-15T11:18:46;101113.01;;;17.53;53.89
70555;BME280;58104;52.744;15.242;2024-02-15T11:21:11;101111.89;;;17.81;53.64
70555;BME280;58104;52.744;15.242;2024-02-15T11:23:37;101111.82;;;18.10;53.30
70555;BME280;58104;52.744;15.242;2024-02-15T11:26:02;101107.60;;;18.29;52.75
70555;BME280;58104;52.744;15.242;2024-02-15T11:28:36;101107.12;;;18.45;52.64
70555;BME280;58104;52.744;15.242;2024-02-15T11:30:53;101108.97;;;18.59;52.28
70555;BME280;58104;52.744;15.242;2024-02-15T11:33:27;101106.43;;;18.68;52.09
70555;BME280;58104;52.744;15.242;2024-02-15T11:43:00;101099.71;;;18.80;51.24
70555;BME280;58104;52.744;15.242;2024-02-15T11:45:26;101099.69;;;18.77;51.30
70555;BME280;58104;52.744;15.242;2024-02-15T11:47:53;101097.24;;;18.80;51.52
70555;BME280;58104;52.744;15.242;2024-02-15T11:50:18;101096.30;;;18.82;53.79
70555;BME280;58104;52.744;15.242;2024-02-15T11:52:42;101097.29;;;18.80;52.59
70555;BME280;58104;52.744;15.242;2024-02-15T11:55:08;101094.13;;;18.90;52.11
70555;BME280;58104;52.744;15.242;2024-02-15T11:57:33;101093.23;;;18.82;51.96
70555;BME280;58104;52.744;15.242;2024-02-15T11:59:58;101088.90;;;18.84;51.86
70555;BME280;58104;52.744;15.242;2024-02-15T12:02:24;101085.24;;;18.80;51.76
70555;BME280;58104;52.744;15.242;2024-02-15T12:04:49;101087.35;;;18.89;51.72
70555;BME280;58104;52.744;15.242;2024-02-15T12:07:14;101088.57;;;18.81;51.48
70555;BME280;58104;52.744;15.242;2024-02-15T12:09:39;101085.12;;;18.90;51.54
70555;BME280;58104;52.744;15.242;2024-02-15T12:12:05;101088.10;;;18.93;51.70
70555;BME280;58104;52.744;15.242;2024-02-15T12:14:30;101088.01;;;18.93;51.61
70555;BME280;58104;52.744;15.242;2024-02-15T12:17:00;101089.81;;;18.87;51.36
70555;BME280;58104;52.744;15.242;2024-02-15T12:19:21;101087.61;;;18.83;51.62
70555;BME280;58104;52.744;15.242;2024-02-15T12:21:46;101085.48;;;18.83;51.52
70555;BME280;58104;52.744;15.242;2024-02-15T12:24:12;101081.55;;;18.85;51.77
70555;BME280;58104;52.744;15.242;2024-02-15T12:26:38;101082.94;;;18.85;51.46
70555;BME280;58104;52.744;15.242;2024-02-15T12:29:03;101078.39;;;18.90;51.45
70555;BME280;58104;52.744;15.242;2024-02-15T12:31:28;101075.82;;;18.87;51.41
70555;BME280;58104;52.744;15.242;2024-02-15T12:34:00;101074.82;;;18.88;51.51
70555;BME280;58104;52.744;15.242;2024-02-15T12:36:20;101069.88;;;18.99;51.27
70555;BME280;58104;52.744;15.242;2024-02-15T12:38:44;101066.81;;;18.93;51.24
70555;BME280;58104;52.744;15.242;2024-02-15T12:41:19;101065.03;;;18.93;51.27